Latest Weather Observations for Adelaide (West Terrace / ngayirdapira)

IDS60801

Issued at 5:11 pm CDT Thursday 23 January 2020 (issued every 10 minutes, with the page automatically refreshed every 10 minutes)

About weather observations | Map of weather stations | Latest weather observations for SA | Other Formats
Station Details ID: 023000 Name: ADELAIDE (WEST TERRACE / NGAYIRDAPIRA) Lat: -34.93 Lon: 138.58 Height: 29.32 m
Data from the previous 72 hours. | See also: Recent months at Adelaide (West Terrace / ngayirdapira)
Date/Time
CDT
Temp
°C
App
Temp
°C
Dew
Point
°C
Rel
Hum
%
Delta-T
°C
Wind Press
QNH
hPa
Press
MSL
hPa
Rain since
9am
mm
Dir  Spd
km/h
Gust
km/h
Spd
kts
Gust
kts
23/05:00pm 19.9 15.2 7.6 45 6.3 WSW 22 41 12 22 1007.0 1006.8 0.2
23/04:30pm 20.2 15.6 6.5 41 6.9 WSW 20 39 11 21 1006.8 1006.6 0.2
23/04:00pm 19.6 14.7 7.0 44 6.4 WSW 22 37 12 20 1006.7 1006.5 0.2
23/03:30pm 19.9 15.7 8.3 47 6.0 SW 20 35 11 19 1006.6 1006.4 0.2
23/03:00pm 19.7 15.2 8.7 49 5.8 SW 22 33 12 18 1006.2 1006.0 0.2
23/02:30pm 19.3 14.0 6.8 44 6.3 SW 24 41 13 22 1006.2 1006.0 0.2
23/02:07pm 19.0 12.8 6.2 43 6.4 WSW 28 46 15 25 1005.9 1005.7 0.2
23/02:00pm 19.4 13.3 6.5 43 6.5 WSW 28 43 15 23 1005.9 1005.7 0.2
23/01:33pm 19.3 13.4 7.7 47 5.9 SW 28 46 15 25 1005.6 1005.4 0.2
23/01:30pm 18.8 13.1 6.6 45 6.1 WSW 26 46 14 25 1005.6 1005.4 0.2
23/01:00pm 18.8 13.1 6.9 46 6.0 WSW 26 41 14 22 1005.2 1005.0 0.2
23/12:46pm 18.7 12.9 7.8 49 5.6 SW 28 48 15 26 1004.9 1004.7 0.2
23/12:30pm 19.0 13.9 7.8 48 5.8 WSW 24 39 13 21 1004.9 1004.7 0.2
23/12:17pm 18.8 12.6 6.3 44 6.2 WSW 28 50 15 27 1004.6 1004.4 0.2
23/12:00pm 18.2 13.3 8.5 53 5.0 WSW 24 41 13 22 1004.3 1004.1 0.0
23/11:30am 17.9 12.1 7.9 52 5.1 WSW 28 43 15 23 1003.9 1003.7 0.0
23/11:01am 18.1 11.6 8.1 52 5.1 WSW 32 50 17 27 1003.0 1002.8 0.0
23/11:00am 18.2 11.5 8.2 52 5.1 WSW 33 50 18 27 1003.0 1002.8 0.0
23/10:38am 18.4 11.8 7.8 50 5.4 WSW 32 50 17 27 1002.6 1002.5 0.0
23/10:30am 18.2 12.2 8.5 53 5.0 WSW 30 46 16 25 1002.5 1002.4 0.0
23/10:00am 18.4 12.6 7.8 50 5.4 WSW 28 46 15 25 1002.2 1002.1 0.0
23/09:30am 17.7 12.5 10.1 61 4.1 W 28 52 15 28 1001.9 1001.8 0.0
23/09:05am 17.2 12.2 10.8 66 3.4 W 28 46 15 25 1001.5 1001.4 0.0
23/09:00am 17.0 11.5 10.4 65 3.5 WSW 30 46 16 25 1001.4 1001.3 5.8
23/08:30am 16.6 11.3 10.0 65 3.5 W 28 50 15 27 1000.9 1000.8 5.8
23/08:00am 15.8 11.2 11.2 74 2.5 W 26 44 14 24 1000.6 1000.5 5.8
23/07:41am 14.8 11.8 12.7 87 1.2 W 20 35 11 19 1000.2 1000.1 5.8
23/07:30am 14.2 9.9 12.1 87 1.1 W 26 48 14 26 1000.1 1000.0 5.8
23/07:12am 14.7 10.2 12.6 87 1.2 W 28 46 15 25 999.8 999.7 5.0
23/07:11am 14.8 10.6 12.5 86 1.3 W 26 46 14 25 999.8 999.7 5.0
23/07:00am 17.1 13.6 12.2 73 2.7 WNW 22 30 12 16 999.2 999.1 4.4
23/06:30am 16.6 13.4 12.0 74 2.5 WNW 20 35 11 19 999.0 998.9 4.4
23/06:00am 16.2 13.2 12.4 78 2.1 WNW 20 33 11 18 998.9 998.8 4.4
23/05:30am 15.6 14.1 14.1 91 0.9 WNW 15 20 8 11 998.7 998.6 4.4
23/05:23am 15.5 14.4 14.2 92 0.7 WNW 13 24 7 13 998.6 998.5 4.4
23/05:00am 15.5 13.6 14.2 92 0.7 WNW 17 24 9 13 998.6 998.5 3.6
23/04:40am 15.9 14.2 13.7 87 1.2 WNW 15 33 8 18 998.6 998.5 2.0
23/04:30am 16.0 14.4 12.9 82 1.7 NW 13 28 7 15 998.3 998.2 1.6
23/04:00am 15.4 15.0 12.9 85 1.4 NW 7 11 4 6 998.7 998.6 1.6
23/03:30am 15.1 14.2 12.6 85 1.4 NNW 9 13 5 7 998.8 998.7 1.6
23/03:00am 15.0 14.6 12.9 87 1.2 W 7 11 4 6 999.3 999.2 1.6
23/02:55am 14.9 14.5 12.9 88 1.1 W 7 15 4 8 999.3 999.2 1.6
23/02:44am 15.1 14.4 13.3 89 1.0 W 9 15 5 8 999.4 999.3 1.6
23/02:30am 14.9 13.5 13.3 90 0.9 W 13 19 7 10 999.5 999.4 1.6
23/02:22am 14.8 13.4 13.3 91 0.8 WSW 13 20 7 11 999.6 999.5 1.6
23/02:00am 15.3 13.1 13.3 88 1.1 WSW 17 39 9 21 1000.1 1000.0 1.4
23/01:58am 15.5 13.6 13.0 85 1.4 WSW 15 39 8 21 1000.0 999.9 1.0
23/01:30am 16.5 13.8 11.6 73 2.7 WSW 17 33 9 18 1000.1 1000.0 0.2
23/01:00am 16.4 12.8 11.8 74 2.5 WSW 22 33 12 18 1000.5 1000.4 0.2
23/12:30am 17.6 14.4 9.8 60 4.1 NW 17 30 9 16 1000.2 1000.1 0.2
23/12:06am 15.3 11.9 12.6 84 1.5 WNW 22 41 12 22 1001.1 1001.0 0.2
23/12:00am 15.4 11.7 12.7 84 1.5 W 24 41 13 22 1001.3 1001.2 0.0
 
Date/Time
CDT
Temp
°C
App
Temp
°C
Dew
Point
°C
Rel
Hum
%
Delta-T
°C
Wind Press
QNH
hPa
Press
MSL
hPa
Rain since
9am
mm
Dir  Spd
km/h
Gust
km/h
Spd
kts
Gust
kts
22/11:55pm 15.6 12.6 12.5 82 1.7 W 20 35 11 19 1001.1 1001.0 0.0
22/11:30pm 17.6 15.2 12.5 72 2.8 W 17 26 9 14 1000.9 1000.8 0.0
22/11:00pm 18.4 17.2 11.7 65 3.7 W 9 15 5 8 1000.8 1000.7 0.0
22/10:30pm 18.2 17.2 12.4 69 3.2 WSW 9 15 5 8 1001.1 1001.0 0.0
22/10:00pm 18.6 16.5 12.4 67 3.5 WSW 15 28 8 15 1000.8 1000.7 0.0
22/09:30pm 19.5 16.5 9.4 52 5.4 WNW 15 26 8 14 1000.6 1000.5 0.0
22/09:00pm 18.9 17.4 10.7 59 4.5 WSW 9 17 5 9 1000.3 1000.2 0.0
22/08:30pm 18.9 16.1 9.9 56 4.8 WSW 15 22 8 12 999.9 999.8 0.0
22/08:00pm 19.0 16.3 10.3 57 4.7 SW 15 22 8 12 999.7 999.6 0.0
22/07:30pm 19.2 16.0 9.9 55 5.0 SW 17 26 9 14 999.6 999.5 0.0
22/07:00pm 19.3 15.7 9.8 54 5.1 WSW 19 28 10 15 999.2 999.1 0.0
22/06:30pm 19.8 17.1 10.5 55 5.1 SW 15 26 8 14 999.5 999.4 0.0
22/06:00pm 19.4 16.4 10.7 57 4.7 SW 17 28 9 15 999.1 999.0 0.0
22/05:30pm 19.8 17.5 11.8 60 4.5 SW 15 22 8 12 999.5 999.4 0.0
22/05:00pm 19.8 18.0 13.3 66 3.7 SW 15 24 8 13 999.7 999.6 0.0
22/04:30pm 20.4 18.1 12.9 62 4.3 W 17 28 9 15 1000.0 999.9 0.0
22/04:00pm 20.2 18.3 11.9 59 4.6 W 13 20 7 11 1000.4 1000.3 0.0
22/03:30pm 20.9 19.0 11.8 56 5.1 SW 13 22 7 12 1000.4 1000.3 0.0
22/03:00pm 20.8 18.6 12.0 57 4.9 SW 15 26 8 14 1001.1 1001.0 0.0
22/02:30pm 21.5 19.2 11.8 54 5.5 SW 15 24 8 13 1000.8 1000.7 0.0
22/02:00pm 22.9 20.0 11.0 47 6.6 SW 17 26 9 14 1001.0 1000.9 0.0
22/01:30pm 22.7 18.9 11.1 48 6.5 WSW 22 32 12 17 1001.3 1001.2 0.0
22/01:00pm 22.5 19.2 11.6 50 6.1 SW 20 33 11 18 1001.1 1001.0 0.0
22/12:30pm 22.7 20.0 13.5 56 5.4 SW 20 39 11 21 1001.4 1001.3 0.0
22/12:00pm 22.5 19.9 14.9 62 4.5 SW 22 37 12 20 1001.2 1001.1 0.0
22/11:30am 22.1 20.2 14.2 61 4.6 WSW 17 28 9 15 1000.7 1000.6 0.0
22/11:00am 23.4 20.7 13.0 52 6.0 WSW 19 33 10 18 1000.4 1000.3 0.0
22/10:30am 24.5 20.6 9.3 38 8.3 W 20 28 11 15 1000.0 999.9 0.0
22/10:00am 23.6 20.9 11.6 47 6.8 WSW 17 24 9 13 999.8 999.7 0.0
22/09:30am 24.8 21.4 9.1 37 8.6 WNW 17 24 9 13 999.9 999.8 0.0
22/09:00am 24.8 21.7 5.6 29 9.8 NNW 11 17 6 9 999.4 999.3 0.0
22/08:30am 24.5 21.5 5.8 30 9.6 N 11 17 6 9 999.3 999.2 0.0
22/08:00am 24.6 20.6 6.8 32 9.3 NNE 17 28 9 15 999.0 998.9 0.0
22/07:30am 24.4 21.0 7.5 34 8.9 NNE 15 20 8 11 999.3 999.2 0.0
22/07:00am 24.3 20.8 7.4 34 8.9 NNE 15 24 8 13 998.8 998.7 0.0
22/06:30am 24.0 20.5 7.2 34 8.8 NNE 15 28 8 15 998.8 998.7 0.0
22/06:00am 23.7 20.2 7.3 35 8.6 NNE 15 22 8 12 999.0 998.9 0.0
22/05:30am 23.5 20.5 7.6 36 8.4 NNE 13 22 7 12 999.1 999.0 0.0
22/05:00am 23.7 20.6 7.3 35 8.6 N 13 20 7 11 999.1 999.0 0.0
22/04:30am 22.7 19.9 8.4 40 7.6 NNE 13 19 7 10 999.3 999.2 0.0
22/04:00am 23.2 20.3 9.6 42 7.4 N 15 24 8 13 999.9 999.8 0.0
22/03:30am 22.4 20.6 9.6 44 7.0 N 9 13 5 7 1000.3 1000.2 0.0
22/03:00am 23.6 20.3 6.4 33 8.9 NNW 13 17 7 9 1000.4 1000.3 0.0
22/02:30am 25.4 21.4 5.1 27 10.4 N 15 24 8 13 1000.2 1000.1 0.0
22/02:00am 25.8 22.3 5.4 27 10.4 N 13 20 7 11 1000.4 1000.3 0.0
22/01:30am 25.7 22.3 5.8 28 10.3 NNE 13 22 7 12 1000.9 1000.8 0.0
22/01:00am 24.4 21.3 7.1 33 9.0 NE 13 17 7 9 1001.3 1001.2 0.0
22/12:30am 24.0 20.6 7.6 35 8.7 NE 15 20 8 11 1001.9 1001.8 0.0
22/12:00am 23.9 20.9 7.9 36 8.5 NE 13 19 7 10 1002.5 1002.4 0.0
 
Date/Time
CDT
Temp
°C
App
Temp
°C
Dew
Point
°C
Rel
Hum
%
Delta-T
°C
Wind Press
QNH
hPa
Press
MSL
hPa
Rain since
9am
mm
Dir  Spd
km/h
Gust
km/h
Spd
kts
Gust
kts
21/11:30pm 24.0 21.7 7.6 35 8.7 ENE 9 13 5 7 1003.0 1002.8 0.0
21/11:00pm 23.6 21.5 8.1 37 8.2 ENE 9 13 5 7 1003.3 1003.1 0.0
21/10:30pm 23.7 21.6 8.2 37 8.3 ENE 9 13 5 7 1003.6 1003.4 0.0
21/10:00pm 24.3 21.6 7.4 34 8.9 ENE 11 15 6 8 1003.8 1003.6 0.0
21/09:30pm 24.5 22.2 7.6 34 9.0 ENE 9 13 5 7 1004.0 1003.8 0.0
21/09:00pm 24.5 22.8 7.6 34 9.0 ENE 6 9 3 5 1004.0 1003.8 0.0
21/08:30pm 24.6 22.8 7.3 33 9.1 NE 6 9 3 5 1004.2 1004.0 0.0
21/08:00pm 24.9 23.2 7.5 33 9.2 NNE 6 9 3 5 1004.4 1004.2 0.0
21/07:30pm 25.6 23.0 6.3 29 10.0 N 9 13 5 7 1004.7 1004.5 0.0
21/07:00pm 26.0 23.0 6.1 28 10.3 NNW 11 17 6 9 1004.8 1004.6 0.0
21/06:30pm 26.7 24.5 6.2 27 10.7 NNW 7 15 4 8 1005.2 1005.0 0.0
21/06:00pm 27.1 24.1 6.0 26 11.0 WNW 11 17 6 9 1005.7 1005.5 0.0
21/05:30pm 26.2 21.7 4.1 24 11.1 WNW 17 26 9 14 1006.2 1006.0 0.0
21/05:00pm 26.5 21.9 6.5 28 10.5 WNW 20 32 11 17 1006.3 1006.1 0.0
21/04:30pm 26.1 22.7 9.0 34 9.4 NW 17 28 9 15 1006.9 1006.7 0.0
21/04:00pm 25.5 21.8 8.1 33 9.3 NW 17 30 9 16 1007.5 1007.3 0.0
21/03:30pm 25.4 21.4 8.4 34 9.2 W 19 32 10 17 1007.8 1007.6 0.0
21/03:00pm 24.2 21.4 6.9 33 9.0 NW 11 20 6 11 1008.4 1008.2 0.0
21/02:30pm 22.6 20.2 10.1 45 6.8 WSW 13 22 7 12 1009.0 1008.8 0.0
21/02:00pm 22.6 20.4 12.0 51 6.0 WSW 15 24 8 13 1009.2 1009.0 0.0
21/01:30pm 22.5 20.2 11.9 51 6.0 WSW 15 24 8 13 1009.6 1009.4 0.0
21/01:00pm 22.9 20.5 11.3 48 6.5 WSW 15 24 8 13 1010.0 1009.9 0.0
21/12:30pm 22.5 20.2 10.3 46 6.7 NW 13 19 7 10 1010.4 1010.3 0.0
21/12:00pm 22.3 20.7 11.4 50 6.1 N 11 19 6 10 1010.6 1010.5 0.0
21/11:30am 20.6 19.5 10.1 51 5.7 N 6 13 3 7 1011.0 1010.9 0.0
21/11:00am 20.2 18.6 10.3 53 5.4 NE 9 17 5 9 1011.3 1011.2 0.0
21/10:30am 19.9 18.4 10.6 55 5.1 NE 9 17 5 9 1011.4 1011.3 0.0
21/10:00am 18.4 17.2 10.3 59 4.3 NNE 7 13 4 7 1011.9 1011.8 0.0
21/09:30am 17.8 16.6 10.2 61 4.0 NE 7 11 4 6 1012.2 1012.1 0.0
21/09:00am 17.2 15.9 10.1 63 3.8 NE 7 13 4 7 1012.3 1012.2 0.0
21/08:30am 17.2 15.8 10.8 66 3.4 NE 9 15 5 8 1012.3 1012.2 0.0
21/08:00am 16.7 15.8 10.8 68 3.2 NE 6 11 3 6 1012.4 1012.3 0.0
21/07:30am 16.4 15.5 10.7 69 3.0 NNE 6 9 3 5 1012.2 1012.1 0.0
21/07:00am 16.1 16.4 10.8 71 2.8 CALM 0 0 0 0 1012.1 1012.0 0.0
21/06:30am 16.0 16.4 11.2 73 2.6 CALM 0 0 0 0 1012.1 1012.0 0.0
21/06:00am 15.9 14.9 10.4 70 2.9 SE 6 7 3 4 1011.9 1011.8 0.0
21/05:30am 15.9 15.9 11.1 73 2.6 S 2 6 1 3 1012.0 1011.9 0.0
21/05:00am 15.9 15.0 10.7 71 2.8 S 6 7 3 4 1012.0 1011.9 0.0
21/04:30am 16.0 14.9 10.7 71 2.8 SSE 7 11 4 6 1012.0 1011.9 0.0
21/04:00am 16.0 14.9 10.7 71 2.8 SSE 7 11 4 6 1012.0 1011.9 0.0
21/03:30am 16.1 15.3 11.1 72 2.7 S 6 9 3 5 1012.2 1012.1 0.0
21/03:00am 16.2 15.2 10.9 71 2.8 SSE 7 13 4 7 1012.1 1012.0 0.0
21/02:30am 16.3 15.5 11.0 71 2.8 S 6 7 3 4 1012.2 1012.1 0.0
21/02:00am 16.2 16.1 10.9 71 2.8 SSE 2 9 1 5 1012.2 1012.1 0.0
21/01:30am 16.3 14.9 11.0 71 2.8 S 9 13 5 7 1012.6 1012.5 0.0
21/01:00am 16.3 14.5 10.8 70 2.9 S 11 17 6 9 1012.9 1012.8 0.0
21/12:30am 16.4 15.4 10.9 70 2.9 S 7 13 4 7 1012.9 1012.8 0.0
21/12:00am 16.5 14.7 11.0 70 3.0 SSE 11 17 6 9 1013.0 1012.9 0.0
 
Date/Time
CDT
Temp
°C
App
Temp
°C
Dew
Point
°C
Rel
Hum
%
Delta-T
°C
Wind Press
QNH
hPa
Press
MSL
hPa
Rain since
9am
mm
Dir  Spd
km/h
Gust
km/h
Spd
kts
Gust
kts
20/11:30pm 16.5 14.7 10.8 69 3.0 S 11 20 6 11 1013.3 1013.2 0.0
20/11:00pm 16.6 15.3 11.1 70 3.0 S 9 17 5 9 1013.4 1013.3 0.0
20/10:30pm 16.6 14.8 10.9 69 3.1 S 11 19 6 10 1013.4 1013.3 0.0
20/10:00pm 16.6 14.3 10.5 67 3.2 S 13 20 7 11 1013.0 1012.9 0.0
20/09:30pm 16.8 13.7 10.4 66 3.4 S 17 26 9 14 1013.0 1012.9 0.0
20/09:00pm 17.2 15.0 10.8 66 3.4 S 13 24 7 13 1012.8 1012.7 0.0
20/08:30pm 17.4 15.1 10.5 64 3.7 SSE 13 20 7 11 1012.4 1012.3 0.0
20/08:00pm 17.8 15.6 10.7 63 3.8 S 13 24 7 13 1011.9 1011.8 0.0
20/07:30pm 18.5 16.0 11.1 62 4.0 S 15 22 8 12 1011.8 1011.7 0.0
20/07:00pm 18.8 16.3 10.9 60 4.3 S 15 20 8 11 1011.5 1011.4 0.0
20/06:30pm 18.8 15.9 11.1 61 4.2 S 17 26 9 14 1011.4 1011.3 0.0
20/06:00pm 19.3 17.4 11.8 62 4.2 SSE 13 24 7 13 1011.4 1011.3 0.0
20/05:30pm 19.1 17.5 11.7 62 4.1 SSE 11 20 6 11 1011.3 1011.2 0.0

Other formats

Comma delimited format used in spreadsheet applications
http://www.bom.gov.au/fwo/IDS60801/IDS60801.94648.axf

JavaScript Object Notation format (JSON) in row-major order
http://www.bom.gov.au/fwo/IDS60801/IDS60801.94648.json

Data quality

Most of these data are generated automatically and are frequently updated. Quality checks on data are not normally performed. It is possible for incorrect values to appear. Refer to information at About Latest Weather Observations and please check the disclaimer before using these data.